UAL1128 KORD-KEWR
Flight info
| Callsign | UAL1128 |
|---|---|
| Flight time | 1h 36m |
| Altitude | 39000 |
| Route | DUFEE ELX HAAKK DOXXY SOSIC KEEHO J584 SLT FQM3 |
| Aircraft | B38M/M-SDE1FGHILORVWXY/HB1 |
Departure
| Time | 2026-04-22 23:58 |
|---|---|
| Airport | Chicago O'Hare International Airport (KORD) |
Arrival
| Time | 2026-04-23 01:35 |
|---|---|
| Airport | Newark Liberty International Airport (KEWR) |
| Time | Latitude | Longitude | Altitude | Speed | Heading |
|---|---|---|---|---|---|
| 2026-04-22 23:31 | 41.97825 | -87.90987 | 668 ft | 0 kts | 278° |
| 2026-04-22 23:35 | 41.97825 | -87.90986 | 668 ft | 0 kts | 278° |
| 2026-04-22 23:36 | 41.97825 | -87.90987 | 668 ft | 0 kts | 278° |
| 2026-04-22 23:37 | 41.97825 | -87.90986 | 668 ft | 0 kts | 278° |
| 2026-04-22 23:45 | 41.97823 | -87.90956 | 666 ft | 4 kts | 268° |
| 2026-04-22 23:46 | 41.97828 | -87.90921 | 668 ft | 4 kts | 240° |
| 2026-04-22 23:46 | 41.97844 | -87.90902 | 667 ft | 2 kts | 190° |
| 2026-04-22 23:46 | 41.97846 | -87.90902 | 668 ft | 0 kts | 189° |
| 2026-04-22 23:50 | 41.97845 | -87.90902 | 667 ft | 1 kts | 189° |
| 2026-04-22 23:50 | 41.97826 | -87.90906 | 668 ft | 6 kts | 189° |
| 2026-04-22 23:50 | 41.97755 | -87.90922 | 670 ft | 14 kts | 189° |
| 2026-04-22 23:51 | 41.97645 | -87.90946 | 673 ft | 17 kts | 189° |
| 2026-04-22 23:51 | 41.97543 | -87.91004 | 671 ft | 17 kts | 233° |
| 2026-04-22 23:51 | 41.97473 | -87.91043 | 671 ft | 9 kts | 148° |
| 2026-04-22 23:51 | 41.97400 | -87.90960 | 673 ft | 20 kts | 139° |
| 2026-04-22 23:52 | 41.97287 | -87.90813 | 671 ft | 23 kts | 132° |
| 2026-04-22 23:52 | 41.97221 | -87.90642 | 669 ft | 22 kts | 97° |
| 2026-04-22 23:52 | 41.97210 | -87.90439 | 670 ft | 21 kts | 93° |
| 2026-04-22 23:52 | 41.97207 | -87.90234 | 670 ft | 22 kts | 89° |
| 2026-04-22 23:53 | 41.97159 | -87.90137 | 669 ft | 5 kts | 187° |
| 2026-04-22 23:53 | 41.97141 | -87.90163 | 668 ft | 5 kts | 249° |
| 2026-04-22 23:53 | 41.97137 | -87.90254 | 670 ft | 15 kts | 269° |
| 2026-04-22 23:53 | 41.97139 | -87.90418 | 669 ft | 20 kts | 274° |
| 2026-04-22 23:54 | 41.97149 | -87.90624 | 668 ft | 24 kts | 274° |
| 2026-04-22 23:54 | 41.97174 | -87.90846 | 674 ft | 23 kts | 275° |
| 2026-04-22 23:54 | 41.97175 | -87.91049 | 669 ft | 22 kts | 266° |
| 2026-04-22 23:54 | 41.97161 | -87.91255 | 678 ft | 22 kts | 265° |
| 2026-04-22 23:55 | 41.97157 | -87.91467 | 678 ft | 24 kts | 270° |
| 2026-04-22 23:55 | 41.97157 | -87.91700 | 679 ft | 25 kts | 270° |
| 2026-04-22 23:55 | 41.97157 | -87.91944 | 678 ft | 28 kts | 270° |
| 2026-04-22 23:55 | 41.97121 | -87.92088 | 674 ft | 10 kts | 197° |
| 2026-04-22 23:56 | 41.97058 | -87.92086 | 676 ft | 10 kts | 179° |
| 2026-04-22 23:56 | 41.97019 | -87.92086 | 677 ft | 0 kts | 180° |
| 2026-04-22 23:56 | 41.97018 | -87.92086 | 677 ft | 1 kts | 180° |
| 2026-04-22 23:57 | 41.96984 | -87.92085 | 678 ft | 11 kts | 180° |
| 2026-04-22 23:57 | 41.96904 | -87.92069 | 677 ft | 2 kts | 125° |
| 2026-04-22 23:57 | 41.96903 | -87.92050 | 677 ft | 5 kts | 90° |
| 2026-04-22 23:57 | 41.96903 | -87.91850 | 678 ft | 54 kts | 90° |
| 2026-04-22 23:58 | 41.96904 | -87.90999 | 673 ft | 124 kts | 90° |
| 2026-04-22 23:58 | 41.96912 | -87.89629 | 895 ft | 159 kts | 89° |
| 2026-04-22 23:58 | 41.96894 | -87.88086 | 1572 ft | 168 kts | 90° |
| 2026-04-22 23:58 | 41.96888 | -87.86500 | 2335 ft | 173 kts | 90° |
| 2026-04-22 23:59 | 41.96923 | -87.84785 | 2870 ft | 194 kts | 89° |
| 2026-04-22 23:59 | 41.96982 | -87.82863 | 3392 ft | 218 kts | 89° |
| 2026-04-22 23:59 | 41.97060 | -87.80729 | 3937 ft | 240 kts | 84° |
| 2026-04-22 23:59 | 41.97469 | -87.78436 | 4498 ft | 262 kts | 74° |
| 2026-04-23 00:00 | 41.98467 | -87.73542 | 6180 ft | 276 kts | 75° |
| 2026-04-23 00:00 | 41.98950 | -87.71102 | 7411 ft | 264 kts | 74° |
| 2026-04-23 00:00 | 41.99408 | -87.68758 | 8648 ft | 257 kts | 73° |
| 2026-04-23 00:01 | 41.99862 | -87.66419 | 9526 ft | 263 kts | 73° |
| 2026-04-23 00:01 | 42.00321 | -87.64041 | 10417 ft | 266 kts | 73° |
| 2026-04-23 00:01 | 42.00792 | -87.61594 | 11351 ft | 270 kts | 72° |
| 2026-04-23 00:01 | 42.01264 | -87.59139 | 12297 ft | 273 kts | 72° |
| 2026-04-23 00:02 | 42.01741 | -87.56649 | 13223 ft | 278 kts | 71° |
| 2026-04-23 00:02 | 42.02235 | -87.54065 | 13842 ft | 295 kts | 71° |
| 2026-04-23 00:02 | 42.02762 | -87.51301 | 14250 ft | 315 kts | 72° |
| 2026-04-23 00:02 | 42.03323 | -87.48355 | 14631 ft | 335 kts | 72° |
| 2026-04-23 00:03 | 42.03911 | -87.45261 | 15152 ft | 348 kts | 72° |
| 2026-04-23 00:03 | 42.04517 | -87.42074 | 15894 ft | 353 kts | 72° |
| 2026-04-23 00:03 | 42.05127 | -87.38861 | 16671 ft | 358 kts | 72° |
| 2026-04-23 00:03 | 42.05746 | -87.35594 | 17407 ft | 363 kts | 72° |
| 2026-04-23 00:04 | 42.06373 | -87.32282 | 18152 ft | 368 kts | 72° |
| 2026-04-23 00:04 | 42.07007 | -87.28926 | 18776 ft | 372 kts | 72° |
| 2026-04-23 00:04 | 42.07648 | -87.25529 | 19406 ft | 375 kts | 72° |
| 2026-04-23 00:04 | 42.08292 | -87.22108 | 19972 ft | 379 kts | 72° |
| 2026-04-23 00:05 | 42.08950 | -87.18606 | 20475 ft | 383 kts | 72° |
| 2026-04-23 00:05 | 42.09604 | -87.15121 | 21008 ft | 386 kts | 72° |
| 2026-04-23 00:05 | 42.10262 | -87.11608 | 21562 ft | 389 kts | 72° |
| 2026-04-23 00:05 | 42.10925 | -87.08061 | 22091 ft | 392 kts | 72° |
| 2026-04-23 00:06 | 42.11333 | -87.04408 | 22613 ft | 400 kts | 84° |
| 2026-04-23 00:06 | 42.11458 | -87.00638 | 22782 ft | 403 kts | 84° |
| 2026-04-23 00:06 | 42.11602 | -86.96880 | 22933 ft | 402 kts | 84° |
| 2026-04-23 00:06 | 42.11742 | -86.93128 | 23055 ft | 403 kts | 84° |
| 2026-04-23 00:07 | 42.11881 | -86.89340 | 23051 ft | 403 kts | 84° |
| 2026-04-23 00:07 | 42.12018 | -86.85572 | 23044 ft | 403 kts | 84° |
| 2026-04-23 00:07 | 42.12155 | -86.81799 | 23037 ft | 403 kts | 84° |
| 2026-04-23 00:07 | 42.12289 | -86.78031 | 23033 ft | 403 kts | 84° |
| 2026-04-23 00:08 | 42.12423 | -86.74260 | 23103 ft | 405 kts | 84° |
| 2026-04-23 00:08 | 42.12556 | -86.70465 | 23702 ft | 406 kts | 84° |
| 2026-04-23 00:08 | 42.12689 | -86.66658 | 24177 ft | 409 kts | 84° |
| 2026-04-23 00:08 | 42.12821 | -86.62812 | 24641 ft | 413 kts | 84° |
| 2026-04-23 00:09 | 42.12953 | -86.58932 | 25101 ft | 416 kts | 84° |
| 2026-04-23 00:09 | 42.13085 | -86.55023 | 25571 ft | 419 kts | 84° |
| 2026-04-23 00:09 | 42.13217 | -86.51083 | 26023 ft | 423 kts | 84° |
| 2026-04-23 00:09 | 42.13350 | -86.47059 | 26468 ft | 426 kts | 84° |
| 2026-04-23 00:10 | 42.13480 | -86.43072 | 26910 ft | 429 kts | 84° |
| 2026-04-23 00:10 | 42.13611 | -86.39025 | 27344 ft | 432 kts | 84° |
| 2026-04-23 00:10 | 42.13741 | -86.34965 | 27765 ft | 436 kts | 84° |
| 2026-04-23 00:10 | 42.13871 | -86.30871 | 28192 ft | 439 kts | 84° |
| 2026-04-23 00:11 | 42.14000 | -86.26747 | 28583 ft | 443 kts | 84° |
| 2026-04-23 00:11 | 42.14086 | -86.23988 | 28852 ft | 445 kts | 84° |
| 2026-04-23 00:11 | 42.14214 | -86.19813 | 29261 ft | 448 kts | 84° |
| 2026-04-23 00:11 | 42.14343 | -86.15607 | 29662 ft | 451 kts | 84° |
| 2026-04-23 00:12 | 42.14402 | -86.11352 | 30021 ft | 456 kts | 87° |
| 2026-04-23 00:12 | 42.14355 | -86.07071 | 30363 ft | 459 kts | 87° |
| 2026-04-23 00:12 | 42.14323 | -86.02760 | 30697 ft | 461 kts | 86° |
| 2026-04-23 00:12 | 42.14295 | -85.98424 | 31010 ft | 464 kts | 86° |
| 2026-04-23 00:13 | 42.14267 | -85.94068 | 31331 ft | 467 kts | 86° |
| 2026-04-23 00:13 | 42.14239 | -85.89674 | 31644 ft | 470 kts | 86° |
| 2026-04-23 00:13 | 42.14208 | -85.85208 | 31965 ft | 472 kts | 86° |
| 2026-04-23 00:13 | 42.14176 | -85.80828 | 32277 ft | 475 kts | 86° |
| 2026-04-23 00:14 | 42.14141 | -85.76305 | 32585 ft | 478 kts | 86° |
| 2026-04-23 00:14 | 42.14105 | -85.71816 | 32885 ft | 480 kts | 86° |
| 2026-04-23 00:14 | 42.14067 | -85.67304 | 33189 ft | 483 kts | 86° |
| 2026-04-23 00:14 | 42.14027 | -85.62778 | 33486 ft | 486 kts | 86° |
| 2026-04-23 00:15 | 42.13984 | -85.58232 | 33824 ft | 487 kts | 86° |
| 2026-04-23 00:15 | 42.13940 | -85.53656 | 34216 ft | 486 kts | 86° |
| 2026-04-23 00:15 | 42.13895 | -85.49103 | 34573 ft | 486 kts | 86° |
| 2026-04-23 00:15 | 42.13847 | -85.44548 | 34937 ft | 486 kts | 86° |
| 2026-04-23 00:16 | 42.13798 | -85.40004 | 35311 ft | 485 kts | 86° |
| 2026-04-23 00:16 | 42.13747 | -85.35464 | 35672 ft | 484 kts | 86° |
| 2026-04-23 00:16 | 42.13694 | -85.30922 | 35998 ft | 484 kts | 86° |
| 2026-04-23 00:16 | 42.13640 | -85.26395 | 36310 ft | 484 kts | 86° |
| 2026-04-23 00:17 | 42.13583 | -85.21861 | 36633 ft | 484 kts | 86° |
| 2026-04-23 00:17 | 42.13526 | -85.17336 | 36933 ft | 483 kts | 86° |
| 2026-04-23 00:17 | 42.13466 | -85.12803 | 37230 ft | 483 kts | 86° |
| 2026-04-23 00:17 | 42.13406 | -85.08288 | 37521 ft | 483 kts | 86° |
| 2026-04-23 00:18 | 42.13340 | -85.03769 | 37831 ft | 483 kts | 86° |
| 2026-04-23 00:18 | 42.13260 | -84.99232 | 38119 ft | 482 kts | 86° |
| 2026-04-23 00:18 | 42.13180 | -84.94665 | 38392 ft | 482 kts | 86° |
| 2026-04-23 00:18 | 42.13099 | -84.90157 | 38650 ft | 481 kts | 86° |
| 2026-04-23 00:19 | 42.13017 | -84.85644 | 38856 ft | 481 kts | 86° |
| 2026-04-23 00:19 | 42.12933 | -84.81141 | 39001 ft | 482 kts | 86° |
| 2026-04-23 00:19 | 42.12848 | -84.76627 | 39029 ft | 482 kts | 86° |
| 2026-04-23 00:20 | 42.12672 | -84.67626 | 39022 ft | 480 kts | 86° |
| 2026-04-23 00:20 | 42.12489 | -84.58639 | 39020 ft | 479 kts | 86° |
| 2026-04-23 00:21 | 42.12301 | -84.49679 | 39018 ft | 479 kts | 86° |
| 2026-04-23 00:21 | 42.12475 | -84.45243 | 39006 ft | 468 kts | 74° |
| 2026-04-23 00:21 | 42.13000 | -84.40917 | 39021 ft | 470 kts | 75° |
| 2026-04-23 00:22 | 42.13963 | -84.32201 | 39014 ft | 470 kts | 75° |
| 2026-04-23 00:22 | 42.14936 | -84.23487 | 39016 ft | 470 kts | 75° |
| 2026-04-23 00:23 | 42.15902 | -84.14785 | 39010 ft | 470 kts | 75° |
| 2026-04-23 00:23 | 42.16862 | -84.06082 | 39001 ft | 469 kts | 75° |
| 2026-04-23 00:24 | 42.17821 | -83.97319 | 38997 ft | 469 kts | 75° |
| 2026-04-23 00:24 | 42.18767 | -83.88609 | 39022 ft | 470 kts | 75° |
| 2026-04-23 00:25 | 42.19708 | -83.79883 | 39001 ft | 471 kts | 75° |
| 2026-04-23 00:25 | 42.20644 | -83.71144 | 38998 ft | 471 kts | 75° |
| 2026-04-23 00:26 | 42.21573 | -83.62402 | 39021 ft | 471 kts | 75° |
| 2026-04-23 00:26 | 42.22497 | -83.53656 | 39021 ft | 471 kts | 75° |
| 2026-04-23 00:26 | 42.22685 | -83.49208 | 38979 ft | 482 kts | 89° |
| 2026-04-23 00:27 | 42.22082 | -83.44745 | 39027 ft | 487 kts | 98° |
| 2026-04-23 00:27 | 42.20556 | -83.35805 | 39006 ft | 489 kts | 98° |
| 2026-04-23 00:28 | 42.18959 | -83.26903 | 39017 ft | 490 kts | 98° |
| 2026-04-23 00:28 | 42.17327 | -83.17959 | 39028 ft | 490 kts | 98° |
| 2026-04-23 00:29 | 42.15681 | -83.08985 | 39030 ft | 489 kts | 98° |
| 2026-04-23 00:29 | 42.14036 | -83.00059 | 39023 ft | 489 kts | 98° |
| 2026-04-23 00:30 | 42.12394 | -82.91190 | 39016 ft | 489 kts | 99° |
| 2026-04-23 00:30 | 42.10739 | -82.82294 | 39017 ft | 490 kts | 99° |
| 2026-04-23 00:31 | 42.09079 | -82.73409 | 39032 ft | 490 kts | 99° |
| 2026-04-23 00:31 | 42.07407 | -82.64505 | 39010 ft | 490 kts | 99° |
| 2026-04-23 00:32 | 42.05730 | -82.55614 | 39009 ft | 490 kts | 99° |
| 2026-04-23 00:32 | 42.04045 | -82.46727 | 39016 ft | 491 kts | 99° |
| 2026-04-23 00:33 | 42.02352 | -82.37835 | 39046 ft | 491 kts | 99° |
| 2026-04-23 00:33 | 42.00653 | -82.28948 | 39032 ft | 491 kts | 99° |
| 2026-04-23 00:34 | 41.98945 | -82.20061 | 39032 ft | 491 kts | 99° |
| 2026-04-23 00:34 | 41.97231 | -82.11181 | 39031 ft | 491 kts | 99° |
| 2026-04-23 00:35 | 41.95510 | -82.02306 | 39042 ft | 491 kts | 99° |
| 2026-04-23 00:35 | 41.93783 | -81.93426 | 39045 ft | 491 kts | 99° |
| 2026-04-23 00:36 | 41.92051 | -81.84493 | 39040 ft | 490 kts | 97° |
| 2026-04-23 00:36 | 41.91111 | -81.75526 | 39048 ft | 485 kts | 91° |
| 2026-04-23 00:37 | 41.90300 | -81.66539 | 39043 ft | 485 kts | 91° |
| 2026-04-23 00:37 | 41.89496 | -81.57552 | 39042 ft | 485 kts | 91° |
| 2026-04-23 00:38 | 41.88686 | -81.48566 | 39029 ft | 485 kts | 91° |
| 2026-04-23 00:38 | 41.87869 | -81.39582 | 39025 ft | 485 kts | 91° |
| 2026-04-23 00:39 | 41.87045 | -81.30601 | 39028 ft | 485 kts | 91° |
| 2026-04-23 00:39 | 41.86213 | -81.21611 | 39030 ft | 485 kts | 91° |
| 2026-04-23 00:40 | 41.85374 | -81.12630 | 39021 ft | 485 kts | 91° |
| 2026-04-23 00:40 | 41.84529 | -81.03658 | 39030 ft | 484 kts | 91° |
| 2026-04-23 00:41 | 41.83679 | -80.94702 | 39026 ft | 485 kts | 91° |
| 2026-04-23 00:41 | 41.82820 | -80.85732 | 39038 ft | 485 kts | 91° |
| 2026-04-23 00:42 | 41.81954 | -80.76765 | 39023 ft | 485 kts | 91° |
| 2026-04-23 00:42 | 41.81223 | -80.69256 | 39029 ft | 485 kts | 91° |
| 2026-04-23 00:43 | 41.80346 | -80.60286 | 39019 ft | 485 kts | 91° |
| 2026-04-23 00:43 | 41.79457 | -80.51322 | 39043 ft | 486 kts | 91° |
| 2026-04-23 00:44 | 41.78562 | -80.42347 | 39027 ft | 486 kts | 91° |
| 2026-04-23 00:44 | 41.77661 | -80.33377 | 39028 ft | 486 kts | 91° |
| 2026-04-23 00:45 | 41.76753 | -80.24419 | 39028 ft | 486 kts | 91° |
| 2026-04-23 00:45 | 41.75834 | -80.15421 | 39050 ft | 487 kts | 91° |
| 2026-04-23 00:46 | 41.74908 | -80.06418 | 39037 ft | 489 kts | 91° |
| 2026-04-23 00:46 | 41.73966 | -79.97342 | 39036 ft | 489 kts | 91° |
| 2026-04-23 00:47 | 41.73024 | -79.88332 | 39035 ft | 489 kts | 91° |
| 2026-04-23 00:47 | 41.72075 | -79.79324 | 39056 ft | 489 kts | 91° |
| 2026-04-23 00:48 | 41.71117 | -79.70304 | 39045 ft | 490 kts | 91° |
| 2026-04-23 00:48 | 41.70152 | -79.61281 | 39043 ft | 490 kts | 91° |
| 2026-04-23 00:49 | 41.69180 | -79.52264 | 39047 ft | 490 kts | 91° |
| 2026-04-23 00:49 | 41.68200 | -79.43244 | 39048 ft | 490 kts | 91° |
| 2026-04-23 00:50 | 41.67213 | -79.34225 | 39042 ft | 490 kts | 91° |
| 2026-04-23 00:50 | 41.66222 | -79.25217 | 39044 ft | 490 kts | 91° |
| 2026-04-23 00:51 | 41.65219 | -79.16208 | 39037 ft | 490 kts | 91° |
| 2026-04-23 00:51 | 41.64211 | -79.07206 | 39039 ft | 489 kts | 92° |
| 2026-04-23 00:52 | 41.63189 | -78.98147 | 39040 ft | 490 kts | 92° |
| 2026-04-23 00:52 | 41.62164 | -78.89130 | 39041 ft | 491 kts | 92° |
| 2026-04-23 00:53 | 41.61133 | -78.80113 | 39032 ft | 491 kts | 92° |
| 2026-04-23 00:53 | 41.60094 | -78.71103 | 39033 ft | 491 kts | 92° |
| 2026-04-23 00:54 | 41.59050 | -78.62103 | 39038 ft | 491 kts | 92° |
| 2026-04-23 00:54 | 41.57998 | -78.53106 | 39033 ft | 491 kts | 92° |
| 2026-04-23 00:55 | 41.56938 | -78.44101 | 39027 ft | 491 kts | 92° |
| 2026-04-23 00:55 | 41.55874 | -78.35114 | 38335 ft | 491 kts | 92° |
| 2026-04-23 00:55 | 41.55335 | -78.30582 | 37080 ft | 498 kts | 92° |
| 2026-04-23 00:56 | 41.54789 | -78.26040 | 36340 ft | 490 kts | 92° |
| 2026-04-23 00:56 | 41.54258 | -78.21618 | 35925 ft | 474 kts | 91° |
| 2026-04-23 00:56 | 41.53740 | -78.17305 | 35553 ft | 467 kts | 91° |
| 2026-04-23 00:56 | 41.53217 | -78.12965 | 35024 ft | 470 kts | 91° |
| 2026-04-23 00:57 | 41.52694 | -78.08646 | 34418 ft | 473 kts | 91° |
| 2026-04-23 00:57 | 41.52170 | -78.04320 | 33783 ft | 471 kts | 92° |
| 2026-04-23 00:57 | 41.51645 | -78.00012 | 33214 ft | 469 kts | 91° |
| 2026-04-23 00:57 | 41.51078 | -77.95754 | 32816 ft | 464 kts | 93° |
| 2026-04-23 00:58 | 41.50474 | -77.91542 | 32490 ft | 461 kts | 93° |
| 2026-04-23 00:58 | 41.49880 | -77.87338 | 32196 ft | 462 kts | 93° |
| 2026-04-23 00:58 | 41.49287 | -77.83138 | 31867 ft | 459 kts | 93° |
| 2026-04-23 00:58 | 41.48697 | -77.78963 | 31508 ft | 458 kts | 93° |
| 2026-04-23 00:59 | 41.48107 | -77.74797 | 31177 ft | 456 kts | 93° |
| 2026-04-23 00:59 | 41.47517 | -77.70652 | 30844 ft | 454 kts | 93° |
| 2026-04-23 00:59 | 41.46932 | -77.66542 | 30506 ft | 451 kts | 93° |
| 2026-04-23 00:59 | 41.46344 | -77.62427 | 30164 ft | 449 kts | 93° |
| 2026-04-23 01:00 | 41.45760 | -77.58352 | 29812 ft | 447 kts | 93° |
| 2026-04-23 01:00 | 41.45177 | -77.54290 | 29461 ft | 446 kts | 93° |
| 2026-04-23 01:00 | 41.44596 | -77.50247 | 29086 ft | 443 kts | 94° |
| 2026-04-23 01:00 | 41.44013 | -77.46219 | 28799 ft | 441 kts | 94° |
| 2026-04-23 01:01 | 41.43433 | -77.42215 | 28484 ft | 439 kts | 94° |
| 2026-04-23 01:01 | 41.42856 | -77.38238 | 28139 ft | 436 kts | 94° |
| 2026-04-23 01:01 | 41.42281 | -77.34288 | 27821 ft | 434 kts | 94° |
| 2026-04-23 01:01 | 41.41708 | -77.30361 | 27503 ft | 430 kts | 95° |
| 2026-04-23 01:02 | 41.41140 | -77.26473 | 27176 ft | 428 kts | 95° |
| 2026-04-23 01:02 | 41.40569 | -77.22581 | 26875 ft | 426 kts | 95° |
| 2026-04-23 01:02 | 41.40000 | -77.18710 | 26562 ft | 424 kts | 95° |
| 2026-04-23 01:02 | 41.39437 | -77.14886 | 26240 ft | 422 kts | 95° |
| 2026-04-23 01:03 | 41.38870 | -77.11048 | 25939 ft | 420 kts | 95° |
| 2026-04-23 01:03 | 41.38309 | -77.07252 | 25624 ft | 418 kts | 95° |
| 2026-04-23 01:03 | 41.37739 | -77.03412 | 25327 ft | 415 kts | 96° |
| 2026-04-23 01:03 | 41.37179 | -76.99647 | 25011 ft | 413 kts | 96° |
| 2026-04-23 01:04 | 41.36620 | -76.95898 | 24709 ft | 411 kts | 96° |
| 2026-04-23 01:04 | 41.36064 | -76.92173 | 24406 ft | 409 kts | 96° |
| 2026-04-23 01:04 | 41.34959 | -76.84790 | 23818 ft | 405 kts | 97° |
| 2026-04-23 01:05 | 41.34409 | -76.81138 | 23493 ft | 401 kts | 97° |
| 2026-04-23 01:05 | 41.33835 | -76.77510 | 23135 ft | 399 kts | 102° |
| 2026-04-23 01:05 | 41.32934 | -76.74020 | 22805 ft | 398 kts | 106° |
| 2026-04-23 01:05 | 41.32005 | -76.70535 | 22542 ft | 400 kts | 106° |
| 2026-04-23 01:06 | 41.31075 | -76.67049 | 22267 ft | 400 kts | 106° |
| 2026-04-23 01:06 | 41.30145 | -76.63570 | 21992 ft | 399 kts | 106° |
| 2026-04-23 01:06 | 41.29216 | -76.60095 | 21683 ft | 397 kts | 106° |
| 2026-04-23 01:06 | 41.28290 | -76.56641 | 21395 ft | 396 kts | 106° |
| 2026-04-23 01:07 | 41.27367 | -76.53201 | 21100 ft | 394 kts | 106° |
| 2026-04-23 01:07 | 41.26446 | -76.49774 | 20825 ft | 393 kts | 106° |
| 2026-04-23 01:07 | 41.25515 | -76.46314 | 20526 ft | 391 kts | 106° |
| 2026-04-23 01:07 | 41.24601 | -76.42922 | 20241 ft | 390 kts | 106° |
| 2026-04-23 01:08 | 41.23689 | -76.39542 | 19953 ft | 388 kts | 106° |
| 2026-04-23 01:08 | 41.22778 | -76.36168 | 19666 ft | 387 kts | 106° |
| 2026-04-23 01:08 | 41.21872 | -76.32820 | 19392 ft | 386 kts | 106° |
| 2026-04-23 01:08 | 41.20964 | -76.29469 | 19107 ft | 384 kts | 106° |
| 2026-04-23 01:09 | 41.20061 | -76.26142 | 18852 ft | 383 kts | 106° |
| 2026-04-23 01:09 | 41.19161 | -76.22823 | 18579 ft | 381 kts | 106° |
| 2026-04-23 01:09 | 41.18259 | -76.19509 | 18275 ft | 381 kts | 106° |
| 2026-04-23 01:09 | 41.17362 | -76.16217 | 17985 ft | 379 kts | 106° |
| 2026-04-23 01:10 | 41.16465 | -76.12927 | 17717 ft | 380 kts | 106° |
| 2026-04-23 01:10 | 41.15567 | -76.09641 | 17433 ft | 378 kts | 106° |
| 2026-04-23 01:10 | 41.14671 | -76.06367 | 17142 ft | 377 kts | 106° |
| 2026-04-23 01:10 | 41.13779 | -76.03110 | 16795 ft | 375 kts | 106° |
| 2026-04-23 01:11 | 41.12893 | -75.99880 | 16534 ft | 371 kts | 106° |
| 2026-04-23 01:11 | 41.12011 | -75.96671 | 16266 ft | 370 kts | 106° |
| 2026-04-23 01:11 | 41.11132 | -75.93473 | 15968 ft | 369 kts | 107° |
| 2026-04-23 01:11 | 41.10254 | -75.90286 | 15714 ft | 367 kts | 107° |
| 2026-04-23 01:12 | 41.09378 | -75.87107 | 15433 ft | 366 kts | 107° |
| 2026-04-23 01:12 | 41.08505 | -75.83945 | 15157 ft | 365 kts | 107° |
| 2026-04-23 01:12 | 41.07623 | -75.80753 | 14886 ft | 364 kts | 107° |
| 2026-04-23 01:12 | 41.06766 | -75.77659 | 14642 ft | 362 kts | 107° |
| 2026-04-23 01:13 | 41.06181 | -75.75548 | 14469 ft | 361 kts | 107° |
| 2026-04-23 01:13 | 41.05314 | -75.72419 | 14203 ft | 361 kts | 107° |
| 2026-04-23 01:13 | 41.04176 | -75.68321 | 13848 ft | 358 kts | 107° |
| 2026-04-23 01:13 | 41.03590 | -75.66216 | 13655 ft | 356 kts | 107° |
| 2026-04-23 01:14 | 41.02738 | -75.63154 | 13371 ft | 354 kts | 107° |
| 2026-04-23 01:14 | 41.01886 | -75.60095 | 13108 ft | 354 kts | 108° |
| 2026-04-23 01:14 | 41.01035 | -75.57046 | 12904 ft | 352 kts | 108° |
| 2026-04-23 01:14 | 41.00188 | -75.54010 | 12602 ft | 351 kts | 108° |
| 2026-04-23 01:15 | 40.99347 | -75.50999 | 12314 ft | 347 kts | 108° |
| 2026-04-23 01:15 | 40.98510 | -75.48009 | 12053 ft | 346 kts | 108° |
| 2026-04-23 01:15 | 40.97675 | -75.45027 | 11808 ft | 346 kts | 109° |
| 2026-04-23 01:15 | 40.96839 | -75.42048 | 11558 ft | 345 kts | 108° |
| 2026-04-23 01:16 | 40.96006 | -75.39079 | 11271 ft | 343 kts | 109° |
| 2026-04-23 01:16 | 40.95166 | -75.36091 | 10991 ft | 342 kts | 109° |
| 2026-04-23 01:16 | 40.94357 | -75.33216 | 10730 ft | 332 kts | 109° |
| 2026-04-23 01:16 | 40.93558 | -75.30377 | 10476 ft | 318 kts | 109° |
| 2026-04-23 01:17 | 40.92798 | -75.27682 | 10233 ft | 311 kts | 109° |
| 2026-04-23 01:17 | 40.92040 | -75.25000 | 10006 ft | 311 kts | 110° |
| 2026-04-23 01:17 | 40.91283 | -75.22321 | 9744 ft | 311 kts | 109° |
| 2026-04-23 01:17 | 40.90528 | -75.19653 | 9488 ft | 309 kts | 110° |
| 2026-04-23 01:18 | 40.89776 | -75.16993 | 9261 ft | 308 kts | 110° |
| 2026-04-23 01:18 | 40.89025 | -75.14342 | 9013 ft | 307 kts | 110° |
| 2026-04-23 01:18 | 40.88277 | -75.11704 | 8774 ft | 306 kts | 109° |
| 2026-04-23 01:18 | 40.87536 | -75.09072 | 8516 ft | 306 kts | 109° |
| 2026-04-23 01:19 | 40.86795 | -75.06450 | 8290 ft | 304 kts | 109° |
| 2026-04-23 01:19 | 40.86060 | -75.03846 | 8068 ft | 302 kts | 109° |
| 2026-04-23 01:19 | 40.85327 | -75.01253 | 7849 ft | 300 kts | 109° |
| 2026-04-23 01:19 | 40.84598 | -74.98676 | 7604 ft | 299 kts | 109° |
| 2026-04-23 01:20 | 40.83872 | -74.96117 | 7373 ft | 296 kts | 108° |
| 2026-04-23 01:20 | 40.83156 | -74.93592 | 7140 ft | 293 kts | 109° |
| 2026-04-23 01:20 | 40.82445 | -74.91048 | 6987 ft | 297 kts | 108° |
| 2026-04-23 01:20 | 40.81742 | -74.88478 | 6976 ft | 299 kts | 108° |
| 2026-04-23 01:21 | 40.81038 | -74.85902 | 6994 ft | 299 kts | 108° |
| 2026-04-23 01:21 | 40.80405 | -74.83302 | 6982 ft | 297 kts | 97° |
| 2026-04-23 01:21 | 40.80397 | -74.80608 | 6828 ft | 291 kts | 79° |
| 2026-04-23 01:21 | 40.80677 | -74.77969 | 6635 ft | 290 kts | 78° |
| 2026-04-23 01:22 | 40.80974 | -74.75332 | 6425 ft | 290 kts | 78° |
| 2026-04-23 01:22 | 40.81275 | -74.72707 | 6185 ft | 289 kts | 78° |
| 2026-04-23 01:22 | 40.81580 | -74.70095 | 6019 ft | 287 kts | 78° |
| 2026-04-23 01:22 | 40.81889 | -74.67456 | 5980 ft | 286 kts | 78° |
| 2026-04-23 01:23 | 40.82187 | -74.64893 | 5997 ft | 287 kts | 78° |
| 2026-04-23 01:23 | 40.82499 | -74.62251 | 6012 ft | 288 kts | 78° |
| 2026-04-23 01:23 | 40.82807 | -74.59644 | 5995 ft | 287 kts | 77° |
| 2026-04-23 01:23 | 40.83125 | -74.57042 | 6004 ft | 287 kts | 74° |
| 2026-04-23 01:24 | 40.83663 | -74.54523 | 6005 ft | 285 kts | 68° |
| 2026-04-23 01:24 | 40.84280 | -74.52039 | 6004 ft | 284 kts | 68° |
| 2026-04-23 01:24 | 40.84899 | -74.49562 | 6009 ft | 284 kts | 68° |
| 2026-04-23 01:24 | 40.85515 | -74.47087 | 5990 ft | 282 kts | 68° |
| 2026-04-23 01:25 | 40.86105 | -74.44706 | 6002 ft | 261 kts | 68° |
| 2026-04-23 01:25 | 40.86641 | -74.42500 | 6009 ft | 248 kts | 68° |
| 2026-04-23 01:25 | 40.87169 | -74.40332 | 6019 ft | 247 kts | 68° |
| 2026-04-23 01:25 | 40.87692 | -74.38172 | 6007 ft | 247 kts | 68° |
| 2026-04-23 01:26 | 40.88215 | -74.36020 | 6000 ft | 246 kts | 68° |
| 2026-04-23 01:26 | 40.88739 | -74.33871 | 6000 ft | 245 kts | 68° |
| 2026-04-23 01:26 | 40.89261 | -74.31730 | 5903 ft | 246 kts | 68° |
| 2026-04-23 01:26 | 40.89806 | -74.29524 | 5695 ft | 258 kts | 68° |
| 2026-04-23 01:27 | 40.90377 | -74.27257 | 5474 ft | 262 kts | 68° |
| 2026-04-23 01:27 | 40.90965 | -74.24972 | 5266 ft | 263 kts | 68° |
| 2026-04-23 01:27 | 40.91560 | -74.22685 | 5060 ft | 262 kts | 68° |
| 2026-04-23 01:27 | 40.92128 | -74.20491 | 5039 ft | 243 kts | 68° |
| 2026-04-23 01:28 | 40.92667 | -74.18409 | 5056 ft | 240 kts | 67° |
| 2026-04-23 01:28 | 40.93206 | -74.16306 | 5000 ft | 241 kts | 67° |
| 2026-04-23 01:28 | 40.93728 | -74.14209 | 4822 ft | 241 kts | 73° |
| 2026-04-23 01:28 | 40.93709 | -74.12003 | 4588 ft | 243 kts | 106° |
| 2026-04-23 01:29 | 40.92924 | -74.10034 | 4391 ft | 243 kts | 126° |
| 2026-04-23 01:29 | 40.91909 | -74.08202 | 4154 ft | 243 kts | 127° |
| 2026-04-23 01:29 | 40.90865 | -74.06465 | 3882 ft | 241 kts | 139° |
| 2026-04-23 01:29 | 40.89422 | -74.05427 | 3600 ft | 235 kts | 169° |
| 2026-04-23 01:30 | 40.87826 | -74.05177 | 3349 ft | 229 kts | 185° |
| 2026-04-23 01:30 | 40.86307 | -74.05601 | 3146 ft | 219 kts | 205° |
| 2026-04-23 01:30 | 40.84961 | -74.06411 | 3083 ft | 206 kts | 210° |
| 2026-04-23 01:30 | 40.83709 | -74.07228 | 2993 ft | 198 kts | 210° |
| 2026-04-23 01:31 | 40.82507 | -74.08003 | 2760 ft | 187 kts | 210° |
| 2026-04-23 01:31 | 40.81359 | -74.08740 | 2531 ft | 179 kts | 209° |
| 2026-04-23 01:31 | 40.80275 | -74.09434 | 2311 ft | 167 kts | 209° |
| 2026-04-23 01:31 | 40.79286 | -74.10067 | 2146 ft | 151 kts | 208° |
| 2026-04-23 01:32 | 40.78356 | -74.10664 | 1929 ft | 146 kts | 207° |
| 2026-04-23 01:32 | 40.77446 | -74.11246 | 1728 ft | 145 kts | 207° |
| 2026-04-23 01:32 | 40.76540 | -74.11824 | 1526 ft | 145 kts | 207° |
| 2026-04-23 01:32 | 40.75634 | -74.12405 | 1317 ft | 145 kts | 206° |
| 2026-04-23 01:33 | 40.74726 | -74.12984 | 1087 ft | 145 kts | 206° |
| 2026-04-23 01:33 | 40.73818 | -74.13564 | 909 ft | 146 kts | 205° |
| 2026-04-23 01:33 | 40.72902 | -74.14149 | 718 ft | 146 kts | 204° |
| 2026-04-23 01:33 | 40.71971 | -74.14744 | 519 ft | 147 kts | 204° |
| 2026-04-23 01:34 | 40.71058 | -74.15330 | 328 ft | 146 kts | 205° |
| 2026-04-23 01:34 | 40.70140 | -74.15918 | 110 ft | 147 kts | 204° |
| 2026-04-23 01:34 | 40.69251 | -74.16474 | 27 ft | 130 kts | 206° |
| 2026-04-23 01:34 | 40.68653 | -74.16853 | 22 ft | 63 kts | 205° |
| 2026-04-23 01:35 | 40.68389 | -74.17032 | 24 ft | 30 kts | 214° |
| 2026-04-23 01:35 | 40.68239 | -74.17227 | 23 ft | 20 kts | 234° |
| 2026-04-23 01:35 | 40.68198 | -74.17306 | 24 ft | 0 kts | 237° |
| 2026-04-23 01:35 | 40.68189 | -74.17323 | 22 ft | 5 kts | 237° |
| 2026-04-23 01:36 | 40.68162 | -74.17377 | 21 ft | 10 kts | 237° |
| 2026-04-23 01:36 | 40.68143 | -74.17450 | 20 ft | 5 kts | 288° |
| 2026-04-23 01:36 | 40.68167 | -74.17510 | 23 ft | 12 kts | 298° |
| 2026-04-23 01:36 | 40.68224 | -74.17654 | 22 ft | 21 kts | 304° |
| 2026-04-23 01:37 | 40.68357 | -74.17707 | 26 ft | 22 kts | 25° |
| 2026-04-23 01:37 | 40.68477 | -74.17629 | 28 ft | 18 kts | 26° |
| 2026-04-23 01:37 | 40.68601 | -74.17550 | 27 ft | 22 kts | 26° |
| 2026-04-23 01:37 | 40.68743 | -74.17459 | 27 ft | 24 kts | 25° |
| 2026-04-23 01:38 | 40.68903 | -74.17357 | 26 ft | 26 kts | 26° |
| 2026-04-23 01:38 | 40.69064 | -74.17255 | 20 ft | 23 kts | 25° |
| 2026-04-23 01:38 | 40.69213 | -74.17165 | 21 ft | 20 kts | 12° |
| 2026-04-23 01:38 | 40.69293 | -74.17274 | 19 ft | 19 kts | 302° |
| 2026-04-23 01:39 | 40.69370 | -74.17329 | 20 ft | 2 kts | 33° |
| 2026-04-23 01:39 | 40.69379 | -74.17313 | 21 ft | 3 kts | 48° |
| 2026-04-23 01:39 | 40.69382 | -74.17308 | 21 ft | 0 kts | 47° |